createdAt,value
2023-04-03T06:31:54.401Z,41.04
2023-04-03T06:36:46.282Z,46.76
2023-04-03T06:41:39.428Z,48.30
2023-04-03T06:46:31.628Z,42.24
2023-04-03T06:51:26.690Z,37.20
2023-04-03T06:56:20.622Z,34.31
2023-04-03T07:01:14.974Z,33.65
2023-04-03T07:06:08.108Z,33.45
2023-04-03T07:11:00.001Z,30.97
2023-04-03T07:15:51.750Z,28.85
2023-04-03T07:20:44.337Z,30.92
2023-04-03T07:25:36.167Z,29.81
2023-04-03T07:30:30.992Z,29.60
2023-04-03T07:35:23.325Z,28.37
2023-04-03T07:40:15.779Z,28.77
2023-04-03T07:45:08.026Z,27.48
2023-04-03T07:49:59.863Z,29.29
2023-04-03T07:55:48.344Z,29.96
2023-04-03T08:00:40.536Z,27.40
2023-04-03T08:05:32.661Z,26.19
2023-04-03T08:10:24.483Z,27.32
2023-04-03T08:15:17.442Z,27.05
2023-04-03T08:20:10.967Z,27.86
2023-04-03T08:25:02.950Z,27.76
2023-04-03T08:29:54.618Z,27.75
2023-04-03T08:34:47.221Z,26.85
2023-04-03T08:39:39.087Z,25.38
2023-04-03T08:44:57.961Z,25.36
2023-04-03T08:49:56.752Z,26.04
2023-04-03T08:55:01.971Z,25.47
2023-04-03T08:59:54.004Z,27.32
2023-04-03T09:04:46.178Z,28.34
2023-04-03T09:09:42.422Z,27.05
2023-04-03T09:14:50.267Z,26.75
2023-04-03T09:19:59.193Z,27.43
2023-04-03T09:25:10.015Z,26.70
2023-04-03T09:30:01.725Z,27.66
2023-04-03T09:34:56.281Z,27.67
2023-04-03T09:39:55.263Z,29.05
2023-04-03T09:44:55.913Z,27.36
2023-04-03T09:49:47.595Z,30.56
2023-04-03T09:54:41.134Z,29.85
2023-04-03T09:59:33.652Z,28.92
2023-04-03T10:04:25.666Z,28.65
2023-04-03T10:09:29.442Z,30.25
2023-04-03T10:14:21.275Z,31.02
2023-04-03T10:19:42.335Z,30.47
2023-04-03T10:25:01.529Z,31.78
2023-04-03T10:30:06.187Z,32.30
2023-04-03T10:35:38.053Z,32.24
2023-04-03T10:40:44.326Z,31.69
2023-04-03T10:46:20.523Z,31.31
2023-04-03T10:51:29.970Z,30.17
2023-04-03T10:57:08.708Z,30.19
2023-04-03T11:02:23.468Z,27.91
2023-04-03T11:07:24.350Z,28.84
2023-04-03T11:12:24.740Z,28.09
2023-04-03T11:17:19.367Z,29.31
2023-04-03T11:22:34.018Z,29.22
2023-04-03T11:27:28.415Z,29.70
2023-04-03T11:33:08.157Z,29.83
2023-04-03T11:38:03.453Z,29.84
2023-04-03T11:43:05.742Z,29.60
2023-04-03T11:48:17.068Z,29.08
2023-04-03T11:53:13.047Z,29.13
2023-04-03T11:58:20.077Z,29.63
2023-04-03T12:03:24.148Z,29.78
2023-04-03T12:08:46.198Z,28.75
2023-04-03T12:13:49.774Z,28.85
2023-04-03T12:19:05.551Z,29.09
2023-04-03T12:23:59.603Z,28.00
2023-04-03T12:28:54.342Z,27.55
2023-04-03T12:33:59.016Z,27.42
2023-04-03T12:39:14.173Z,27.61
2023-04-03T12:44:30.845Z,27.57
2023-04-03T12:49:43.808Z,27.53
2023-04-03T12:54:42.922Z,28.38
2023-04-03T12:59:35.014Z,29.28
2023-04-03T13:04:29.679Z,27.74
2023-04-03T13:09:33.545Z,27.37
2023-04-03T13:14:29.499Z,27.37
2023-04-03T13:19:23.279Z,26.14
2023-04-03T13:24:16.160Z,27.45
2023-04-03T13:29:29.862Z,26.82
2023-04-03T13:34:25.214Z,26.61
2023-04-03T13:39:16.843Z,26.48
2023-04-03T13:44:17.813Z,26.18
2023-04-03T13:49:40.771Z,27.51
2023-04-03T13:54:40.646Z,27.59
2023-04-03T13:59:36.876Z,27.55
2023-04-03T14:04:32.217Z,27.48
2023-04-03T14:09:26.428Z,28.02
2023-04-03T14:14:21.951Z,26.92
2023-04-03T14:19:29.565Z,27.27
2023-04-03T14:24:22.174Z,27.83
2023-04-03T14:29:14.731Z,28.83
2023-04-03T14:34:06.797Z,27.94
2023-04-03T14:38:59.373Z,28.78
2023-04-03T14:43:52.079Z,28.30
2023-04-03T14:48:44.594Z,29.64
2023-04-03T14:53:39.146Z,29.09
2023-04-03T14:58:33.263Z,29.36
2023-04-03T15:03:25.565Z,28.53
2023-04-03T15:08:26.475Z,28.50
2023-04-03T15:13:18.292Z,28.01
2023-04-03T15:18:16.392Z,28.51
2023-04-03T15:23:08.105Z,28.88
2023-04-03T15:28:00.920Z,28.43
2023-04-03T15:32:54.143Z,28.18
2023-04-03T15:37:46.215Z,29.05
2023-04-03T15:42:38.873Z,29.21
2023-04-03T15:47:31.016Z,29.90
2023-04-03T15:52:22.933Z,28.97
2023-04-03T15:57:14.758Z,29.18
2023-04-03T16:02:09.261Z,28.85
2023-04-03T16:07:04.389Z,28.83
2023-04-03T16:11:57.161Z,30.12
2023-04-03T16:16:49.066Z,31.89
2023-04-03T16:21:40.945Z,31.27
2023-04-03T16:26:33.077Z,31.52
2023-04-03T16:31:26.299Z,31.31
2023-04-03T16:36:18.777Z,30.93
2023-04-03T16:41:10.529Z,31.24
2023-04-03T16:46:03.579Z,33.33
2023-04-03T16:50:55.592Z,34.36
2023-04-03T16:55:47.429Z,34.79
2023-04-03T17:00:39.137Z,34.65
2023-04-03T17:05:31.126Z,35.21
2023-04-03T17:10:22.976Z,35.61
2023-04-03T17:15:15.023Z,36.02
2023-04-03T17:20:07.920Z,35.43
2023-04-03T17:25:00.004Z,35.85
2023-04-03T17:29:51.816Z,35.95
2023-04-03T17:34:43.750Z,36.10
2023-04-03T17:39:35.695Z,36.43
2023-04-03T17:44:27.458Z,36.10
2023-04-03T17:49:20.640Z,36.82
2023-04-03T17:54:12.635Z,36.42
2023-04-03T17:59:04.589Z,36.72
2023-04-03T18:03:59.144Z,37.48
2023-04-03T18:08:54.652Z,38.00
2023-04-03T18:13:47.064Z,38.86
2023-04-03T18:18:39.345Z,39.27
2023-04-03T18:23:35.730Z,40.28
2023-04-03T18:28:29.766Z,39.56
2023-04-03T18:33:21.706Z,39.66
2023-04-03T18:38:14.317Z,40.64
2023-04-03T18:43:06.572Z,40.65
2023-04-03T18:47:58.245Z,40.91
2023-04-03T18:52:50.848Z,40.59
2023-04-03T18:57:42.592Z,40.97
2023-04-03T19:02:36.984Z,40.47
2023-04-03T19:07:29.237Z,41.15
2023-04-03T19:12:20.979Z,41.50
2023-04-03T19:17:12.771Z,40.38
2023-04-03T19:22:04.569Z,42.11
2023-04-03T19:26:56.272Z,41.62
2023-04-03T19:31:48.032Z,41.73
2023-04-03T19:36:40.000Z,41.78
2023-04-03T19:41:35.725Z,42.63
2023-04-03T19:46:29.707Z,42.30
2023-04-03T19:51:21.750Z,43.19
2023-04-03T19:56:16.485Z,43.35
2023-04-03T20:01:08.296Z,43.40
2023-04-03T20:06:01.250Z,43.45
2023-04-03T20:10:56.109Z,43.97
2023-04-03T20:15:47.868Z,44.23
2023-04-03T20:20:42.305Z,44.79
2023-04-03T20:30:29.139Z,45.19
2023-04-03T20:35:22.167Z,45.56
2023-04-03T20:40:14.496Z,45.27
2023-04-03T20:45:08.472Z,45.51
2023-04-03T20:50:01.815Z,46.18
2023-04-03T20:54:53.614Z,46.40
2023-04-03T20:59:46.097Z,46.44
2023-04-03T21:04:45.409Z,47.09
2023-04-03T21:10:14.556Z,47.24
2023-04-03T21:15:45.209Z,46.42
2023-04-03T21:20:37.267Z,46.87
2023-04-03T21:25:29.571Z,47.30
2023-04-03T21:30:21.506Z,47.27
2023-04-03T21:35:13.319Z,47.98
2023-04-03T21:40:05.759Z,47.92
2023-04-03T21:44:58.356Z,48.13
2023-04-03T21:49:50.177Z,48.48
2023-04-03T21:54:42.157Z,47.71
2023-04-03T21:59:34.376Z,47.28
2023-04-03T22:04:27.263Z,48.21
2023-04-03T22:09:19.022Z,48.65
2023-04-03T22:14:11.152Z,47.96
2023-04-03T22:19:02.873Z,48.26
2023-04-03T22:23:54.812Z,49.08
2023-04-03T22:28:47.446Z,48.53
2023-04-03T22:33:39.861Z,48.51
2023-04-03T22:38:32.155Z,48.67
2023-04-03T22:43:24.112Z,48.40
2023-04-03T22:48:16.864Z,48.76
2023-04-03T22:53:09.174Z,49.23
2023-04-03T22:58:01.150Z,49.48
2023-04-03T23:02:53.356Z,49.52
2023-04-03T23:07:45.425Z,49.99
2023-04-03T23:12:41.431Z,49.75
2023-04-03T23:17:34.307Z,50.29
2023-04-03T23:22:26.109Z,50.22
2023-04-03T23:27:18.041Z,50.43
2023-04-03T23:32:10.992Z,50.18
2023-04-03T23:37:03.313Z,51.26
2023-04-03T23:41:55.432Z,51.13
2023-04-03T23:46:48.114Z,50.75
2023-04-03T23:51:40.665Z,51.05
2023-04-03T23:56:33.710Z,51.01
